Aviation Digital Data Service (ADDS)

Output produced by METARs form (1203 UTC 23 June 2021)
found at http://www.aviationweather.gov/metar/data/
 
METAR text: KGNB 231155Z AUTO 12004KT 10SM CLR 06/M01 A3027 RMK AO2 T00621009 10142 20053
Conditions at: KGNB (GRANBY/GRAND CO , CO, US) observed 1155 UTC 23 June 2021
Temperature: 6.2°C (43°F)
Dewpoint: -0.9°C (30°F) [RH = 60%]
Pressure (altimeter): 30.27 inches Hg (1025.1 mb)
Winds: from the ESE (120 degrees) at 5 MPH (4 knots; 2.1 m/s)
Visibility: 10 or more miles (16+ km)
Ceiling: at least 12,000 feet AGL
Clouds: sky clear below 12,000 feet AGL
Weather: automated observation with no human augmentation;
there may or may not be significant weather present at this time

METAR text: KGNB 231135Z AUTO 14003KT 10SM CLR 07/00 A3027 RMK AO2 T00651005
Conditions at: KGNB (GRANBY/GRAND CO , CO, US) observed 1135 UTC 23 June 2021
Temperature: 6.5°C (44°F)
Dewpoint: -0.5°C (31°F) [RH = 61%]
Pressure (altimeter): 30.27 inches Hg (1025.1 mb)
Winds: from the SE (140 degrees) at 3 MPH (3 knots; 1.5 m/s)
Visibility: 10 or more miles (16+ km)
Ceiling: at least 12,000 feet AGL
Clouds: sky clear below 12,000 feet AGL
Weather: automated observation with no human augmentation;
there may or may not be significant weather present at this time

METAR text: KGNB 231115Z AUTO 00000KT 10SM CLR 07/M01 A3027 RMK AO2 T00691012
Conditions at: KGNB (GRANBY/GRAND CO , CO, US) observed 1115 UTC 23 June 2021
Temperature: 6.9°C (44°F)
Dewpoint: -1.2°C (30°F) [RH = 56%]
Pressure (altimeter): 30.27 inches Hg (1025.1 mb)
Winds: calm
Visibility: 10 or more miles (16+ km)
Ceiling: at least 12,000 feet AGL
Clouds: sky clear below 12,000 feet AGL
Weather: automated observation with no human augmentation;
there may or may not be significant weather present at this time